LEPA

Palma de Mallorca

Airport
ICAO code
LEPA
Summary
ICAO Region
EUR
ICAO Territory
Location

Palma de Mallorca, Baleariac Islands,

Coordinates
39° 33' 2" N , 2° 44' 5" E
KCC
Csa
Airport RI
Runway Misidentification
Metar
Observation
LEPA 170200Z 07003KT 9999 FEW017 FEW050CB 26/24 Q1006 NOSIG
Station
Palma De Mallorca / Son San Juan
Date/Time
2022-08-17 02:00:00
Wind direction
70°
Wind speed
03 kts
Lowest cloud amount
few clouds
Temperature
26°C
Dew point
24°C
Humidity
88%
QNH
1006 hPa
Weather condition
n/a

Description

International airport serving the island of Majorca.

Climatology

Dry-summer subtropical ”Mediterranean" climate (Köppen climate classification Csa) - characterized by hot, dry summers and mild winters. During the summer, subtropical high pressure cells dominate, making rainfall unlikely except for the occasional thunderstorm. In the winter, periodic storms bring rain.

Runways

Designator Length Width Surface Rops
06R/24L 3000 45 ASP Yes/Yes
06L/24R 3270 45 ASP Yes/Yes

Airport map

Aerial View

SKYbrary Partners:

Safety knowledge contributed by: